الصفحة الرئيسية
METAR-TAF:

METAR-TAF

مطار :

بروناي, بروناي

دائرة عرض: 04-56N, خط طول: 114-56E, ارتفاع: 22 متر

مراقبة الطقس الحالي

تاريخ ووقت الإصدار 50 دقيقة قبل الساعة 11:30UTC
ريح 2 عقدة من الشمال/الشمال الغربي
درجة الحرارة 28°درجة مئوية
الرطوبة 74%
ضغط 1008 hPa
الرؤية 10 كم أو أكثر
غيوم قليلة على ارتفاع 1500 قدم
غيوم مفككة على ارتفاع 30000 قدم

METAR: WBSB 231130Z 34002KT 9999 FEW015 BKN300 28/23 Q1008 NOSIG

زمن: 20:20 (12:20 UTC)

توقعات

تاريخ ووقت الإصدار 1ساعة و 30 دقيقة قبل الساعة 10:50UTC
التوقعات صالحة من23 الساعة 12 UTC إلى 24 الساعة 18 UTC
ريح 3 عقدة من الجنوب الشرقي
الرؤية 10 كم أو أكثر
غيوم قليلة على ارتفاع 1400 قدم
أصبح
من 24 الساعة 03 UTC إلى 24 الساعة 05 UTC
ريح 10 عقدة من الشمال الغربي
غيوم متفرقة على ارتفاع 1500 قدم
غيوم قليلة على ارتفاع 1600 قدم, مزنة ركامية.
مؤقت
من 24 الساعة 04 UTC إلى 24 الساعة 08 UTC
الرؤية: 4000 متر
عاصفة رعدية, مطر

TAF: WBSB 231050Z 2312/2418 14003KT 9999 FEW014 BECMG 2403/2405 31010KT SCT015 FEW016CB TEMPO 2404/2408 4000 TSRA

أرصاد الطقس والتوقعات من أكثر من 4000 مطار (تقارير الطقس للمطار METAR والتنبؤ بالطقس بالمطارTAF).

المحطات المتاحة هي النقط الصفراء والحمراء على الخريطة.

حرك المؤشر فوق النقطة لمعرفة اسم المحطة.

ثم انقر لمعرفة أرصاد وتوقعات الطقس.

لتغيير الخارطة: اضغط على الأزرار الخضراء مع رمز الصليب الأسود للتكبير. على الزر الأخضر مع شرطة للتصغير، أو على الأسهم الخضراء للخرائط المجاورة.


METAR-TAF: